createdAt,value
2024-05-09T00:01:52.538Z,94314.56
2024-05-09T00:04:22.840Z,94314.22
2024-05-09T00:06:53.318Z,94312.50
2024-05-09T00:09:23.544Z,94310.56
2024-05-09T00:11:56.805Z,94317.78
2024-05-09T00:14:27.380Z,94311.72
2024-05-09T00:16:57.751Z,94303.47
2024-05-09T00:19:28.197Z,94302.97
2024-05-09T00:21:59.045Z,94298.16
2024-05-09T00:24:29.368Z,94297.78
2024-05-09T00:27:02.286Z,94303.16
2024-05-09T00:29:33.318Z,94311.31
2024-05-09T00:32:03.818Z,94307.69
2024-05-09T00:34:34.463Z,94309.66
2024-05-09T00:37:04.696Z,94305.31
2024-05-09T00:39:34.968Z,94303.75
2024-05-09T00:42:08.575Z,94308.94
2024-05-09T00:44:39.170Z,94303.66
2024-05-09T00:47:10.524Z,94300.00
2024-05-09T00:49:41.649Z,94300.91
2024-05-09T00:52:13.244Z,94304.22
2024-05-09T00:54:43.552Z,94305.88
2024-05-09T00:57:16.935Z,94299.69
2024-05-09T00:59:47.549Z,94310.25
2024-05-09T01:02:19.772Z,94309.31
2024-05-09T01:04:50.259Z,94316.38
2024-05-09T01:07:20.645Z,94319.22
2024-05-09T01:09:50.919Z,94318.72
2024-05-09T01:12:24.783Z,94318.00
2024-05-09T01:14:55.368Z,94312.38
2024-05-09T01:17:25.871Z,94332.13
2024-05-09T01:19:56.305Z,94326.06
2024-05-09T01:22:30.116Z,94326.34
2024-05-09T01:25:02.956Z,94328.00
2024-05-09T01:27:34.382Z,94323.22
2024-05-09T01:30:09.157Z,94332.03
2024-05-09T01:32:39.912Z,94325.53
2024-05-09T01:35:10.845Z,94327.38
2024-05-09T01:37:41.082Z,94330.81
2024-05-09T01:40:18.586Z,94331.94
2024-05-09T01:42:52.583Z,94328.53
2024-05-09T01:45:22.864Z,94329.69
2024-05-09T01:47:53.298Z,94328.09
2024-05-09T01:50:35.734Z,94325.53
2024-05-09T01:53:09.631Z,94327.59
2024-05-09T01:55:43.041Z,94335.66
2024-05-09T01:58:13.559Z,94339.53
2024-05-09T02:00:44.053Z,94339.63
2024-05-09T02:03:17.635Z,94336.03
2024-05-09T02:05:50.193Z,94340.63
2024-05-09T02:08:22.658Z,94343.25
2024-05-09T02:10:55.804Z,94336.97
2024-05-09T02:13:26.054Z,94344.16
2024-05-09T02:15:56.282Z,94341.47
2024-05-09T02:18:26.473Z,94337.31
2024-05-09T02:20:56.816Z,94326.88
2024-05-09T02:23:27.103Z,94335.88
2024-05-09T02:26:00.263Z,94332.91
2024-05-09T02:28:30.969Z,94328.44
2024-05-09T02:31:01.524Z,94336.53
2024-05-09T02:33:31.925Z,94334.72
2024-05-09T02:36:02.316Z,94334.81
2024-05-09T02:38:29.972Z,94338.47
2024-05-09T02:41:02.971Z,94342.41
2024-05-09T02:43:30.638Z,94340.97
2024-05-09T02:46:00.884Z,94346.19
2024-05-09T02:48:28.560Z,94342.91
2024-05-09T02:50:58.922Z,94336.84
2024-05-09T02:53:26.758Z,94335.31
2024-05-09T02:55:57.291Z,94330.19
2024-05-09T02:58:27.594Z,94325.59
2024-05-09T03:00:57.904Z,94327.72
2024-05-09T03:03:25.979Z,94334.59
2024-05-09T03:05:56.472Z,94324.38
2024-05-09T03:08:24.224Z,94323.69
2024-05-09T03:10:54.417Z,94326.34
2024-05-09T03:13:22.096Z,94329.44
2024-05-09T03:15:54.945Z,94316.94
2024-05-09T03:18:22.747Z,94311.94
2024-05-09T03:20:53.086Z,94316.28
2024-05-09T03:23:20.812Z,94308.91
2024-05-09T03:25:51.100Z,94303.53
2024-05-09T03:28:18.624Z,94309.53
2024-05-09T03:30:48.800Z,94312.81
2024-05-09T03:33:20.433Z,94309.88
2024-05-09T03:35:51.566Z,94310.69
2024-05-09T03:38:21.916Z,94317.47
2024-05-09T03:40:53.086Z,94308.53
2024-05-09T03:43:23.401Z,94308.44
2024-05-09T03:45:53.551Z,94308.19
2024-05-09T03:48:23.945Z,94311.69
2024-05-09T03:50:54.303Z,94298.03
2024-05-09T03:53:22.977Z,94305.97
2024-05-09T03:55:53.392Z,94302.06
2024-05-09T03:58:21.048Z,94306.72
2024-05-09T04:00:51.351Z,94294.78
2024-05-09T04:03:19.579Z,94301.00
2024-05-09T04:05:52.638Z,94305.69
2024-05-09T04:08:20.348Z,94309.28
2024-05-09T04:10:50.733Z,94305.41
2024-05-09T04:13:18.399Z,94309.03
2024-05-09T04:15:48.573Z,94300.00
2024-05-09T04:18:17.908Z,94319.28
2024-05-09T04:20:50.921Z,94306.78
2024-05-09T04:23:18.578Z,94312.72
2024-05-09T04:25:49.046Z,94320.16
2024-05-09T04:28:16.720Z,94322.72
2024-05-09T04:30:46.945Z,94324.75
2024-05-09T04:33:15.370Z,94324.59
2024-05-09T04:35:46.108Z,94327.66
2024-05-09T04:38:16.490Z,94341.06
2024-05-09T04:40:46.950Z,94335.19
2024-05-09T04:43:18.645Z,94338.16
2024-05-09T04:45:49.197Z,94350.53
2024-05-09T04:48:17.226Z,94350.75
2024-05-09T04:50:47.759Z,94348.81
2024-05-09T04:53:18.788Z,94357.06
2024-05-09T04:55:49.379Z,94356.19
2024-05-09T04:58:17.019Z,94363.88
2024-05-09T05:00:47.639Z,94364.34
2024-05-09T05:03:16.491Z,94365.44
2024-05-09T05:05:47.917Z,94372.09
2024-05-09T05:08:19.455Z,94376.03
2024-05-09T05:10:50.694Z,94366.22
2024-05-09T05:13:23.737Z,65556.66
2024-05-09T05:15:58.216Z,65556.66
2024-05-09T05:18:27.845Z,65556.66
2024-05-09T05:20:59.615Z,65556.66
2024-05-09T05:23:30.001Z,65556.66
2024-05-09T05:26:00.569Z,65556.66
2024-05-09T05:28:28.323Z,65556.66
2024-05-09T05:30:58.588Z,65556.66
2024-05-09T05:33:26.356Z,65556.66
2024-05-09T05:35:57.342Z,65556.66
2024-05-09T05:38:28.072Z,65556.66
2024-05-09T05:41:01.629Z,65556.66
2024-05-09T05:43:29.731Z,65556.66
2024-05-09T05:45:59.935Z,65556.66
2024-05-09T05:48:27.684Z,65556.66
2024-05-09T05:50:58.996Z,65556.66
2024-05-09T05:53:27.610Z,65556.66
2024-05-09T05:56:00.590Z,65556.66
2024-05-09T05:58:28.182Z,65556.66
2024-05-09T06:00:58.439Z,65556.66
2024-05-09T06:03:26.252Z,65556.66
2024-05-09T06:05:56.587Z,65556.66
2024-05-09T06:08:27.172Z,65556.66
2024-05-09T06:11:02.060Z,65556.66
2024-05-09T06:13:32.291Z,65556.66
2024-05-09T06:16:00.824Z,65556.66
2024-05-09T06:18:31.288Z,65556.66
2024-05-09T06:20:59.150Z,65556.66
2024-05-09T06:23:29.393Z,65556.66
2024-05-09T06:25:59.706Z,65556.66
2024-05-09T06:28:30.017Z,65556.66
2024-05-09T06:30:57.544Z,65556.66
2024-05-09T06:33:28.052Z,65556.66
2024-05-09T06:35:59.391Z,65556.66
2024-05-09T06:38:29.800Z,65556.66
2024-05-09T06:41:00.344Z,65556.66
2024-05-09T06:43:30.606Z,65556.66
2024-05-09T06:45:58.471Z,65556.66
2024-05-09T06:48:29.479Z,65556.66
2024-05-09T06:50:57.243Z,65556.66
2024-05-09T06:53:27.554Z,65556.66
2024-05-09T06:55:55.467Z,65556.66
2024-05-09T06:58:28.395Z,65556.66
2024-05-09T07:00:56.034Z,65556.66
2024-05-09T07:03:26.534Z,65556.66
2024-05-09T07:05:54.313Z,65556.66
2024-05-09T07:08:24.595Z,65556.66
2024-05-09T07:10:52.424Z,65556.66
2024-05-09T07:13:23.230Z,65556.66
2024-05-09T07:15:53.485Z,65556.66
2024-05-09T07:18:23.816Z,65556.66
2024-05-09T07:20:51.615Z,65556.66
2024-05-09T07:23:21.949Z,65556.66
2024-05-09T07:25:49.712Z,65556.66
2024-05-09T07:28:22.277Z,65556.66
2024-05-09T07:30:52.540Z,65556.66
2024-05-09T07:33:24.883Z,65556.66
2024-05-09T07:35:53.072Z,65556.66
2024-05-09T07:38:24.249Z,65556.66
2024-05-09T07:40:51.920Z,65556.66
2024-05-09T07:43:22.304Z,65556.66
2024-05-09T07:45:54.871Z,65556.66
2024-05-09T07:50:00.616Z,65556.66
2024-05-09T07:53:52.394Z,65556.66
2024-05-09T07:56:23.944Z,65556.66
2024-05-09T07:58:56.484Z,65556.66
2024-05-09T08:01:27.574Z,65556.66
2024-05-09T08:03:58.661Z,65556.66
2024-05-09T08:06:26.934Z,65556.66
2024-05-09T08:09:02.812Z,65556.66
2024-05-09T08:11:33.166Z,65556.66
2024-05-09T08:14:03.825Z,65556.66
2024-05-09T08:16:34.141Z,65556.66
2024-05-09T08:19:04.494Z,65556.66
2024-05-09T08:21:32.263Z,65556.66
2024-05-09T08:24:02.989Z,65556.66
2024-05-09T08:26:30.662Z,65556.66
2024-05-09T09:44:32.919Z,94428.44
2024-05-09T09:47:02.337Z,94425.16
2024-05-09T09:49:36.843Z,94417.53
2024-05-09T09:52:07.618Z,94420.91
2024-05-09T09:54:39.259Z,94418.25
2024-05-09T09:57:08.739Z,94418.81
2024-05-09T09:59:46.407Z,94429.00
2024-05-09T10:02:14.422Z,94416.91
2024-05-09T10:04:44.958Z,94416.53
2024-05-09T10:07:14.753Z,94416.50
2024-05-09T10:09:45.488Z,94417.41
2024-05-09T10:12:15.349Z,94418.28
2024-05-09T10:14:52.757Z,94418.78
2024-05-09T10:17:21.137Z,94422.38
2024-05-09T10:19:51.663Z,94417.56
2024-05-09T10:22:28.309Z,94426.19
2024-05-09T10:25:09.511Z,94411.78
2024-05-09T10:42:13.241Z,94405.09
2024-05-09T10:44:42.517Z,94409.19
2024-05-09T10:47:13.139Z,94401.66
2024-05-09T10:49:40.926Z,94405.00
2024-05-09T10:52:11.402Z,94408.19
2024-05-09T10:54:39.926Z,94403.09
2024-05-09T10:57:12.945Z,94399.94
2024-05-09T10:59:42.589Z,94398.88
2024-05-09T11:02:14.950Z,94389.13
2024-05-09T11:04:45.169Z,94399.94
2024-05-09T11:07:18.238Z,94399.94
2024-05-09T11:09:46.636Z,94385.19
2024-05-09T11:12:22.844Z,94397.59
2024-05-09T11:14:54.331Z,94397.00
2024-05-09T11:17:24.729Z,94395.78
2024-05-09T11:19:52.462Z,94388.59
2024-05-09T11:22:25.144Z,94392.44
2024-05-09T11:24:54.865Z,94384.09
2024-05-09T11:27:28.033Z,94386.56
2024-05-09T11:29:55.601Z,94384.38
2024-05-09T11:32:33.103Z,94378.31
2024-05-09T11:35:00.944Z,94374.41
2024-05-09T11:37:36.042Z,94376.28
2024-05-09T11:40:11.440Z,94376.88
2024-05-09T11:42:48.748Z,94369.09
2024-05-09T11:45:18.491Z,94370.97
2024-05-09T11:47:49.640Z,94359.59
2024-05-09T11:50:26.775Z,94375.72
2024-05-09T11:53:00.834Z,94372.66
2024-05-09T11:55:29.105Z,94366.81
2024-05-09T11:58:03.222Z,94364.44
2024-05-09T12:00:36.644Z,94366.84
2024-05-09T12:03:09.241Z,94366.84
2024-05-09T12:05:36.910Z,94355.66
2024-05-09T12:08:08.158Z,94358.13
2024-05-09T12:10:36.972Z,94366.28
2024-05-09T12:13:10.729Z,94353.28
2024-05-09T12:15:39.257Z,94355.63
2024-05-09T12:18:10.378Z,94356.88
2024-05-09T12:20:39.907Z,94346.13
2024-05-09T12:23:12.112Z,94354.81
2024-05-09T12:25:40.403Z,94358.59
2024-05-09T12:28:14.033Z,94347.69
2024-05-09T12:30:42.089Z,94351.38
2024-05-09T12:33:13.997Z,94346.97
2024-05-09T12:35:44.615Z,94346.06
2024-05-09T12:38:17.906Z,94343.97
2024-05-09T12:40:45.656Z,94348.75
2024-05-09T12:43:18.996Z,94344.81
2024-05-09T12:45:46.847Z,94345.59
2024-05-09T12:48:17.614Z,94341.66
2024-05-09T12:50:45.492Z,94343.03
2024-05-09T12:53:16.353Z,94337.34
2024-05-09T12:55:53.279Z,94344.84
2024-05-09T12:58:30.365Z,94346.16
2024-05-09T13:00:58.231Z,94344.00
2024-05-09T13:03:29.203Z,94347.41
2024-05-09T13:05:57.147Z,94343.78
2024-05-09T13:08:27.934Z,94336.31
2024-05-09T13:10:55.992Z,94339.16
2024-05-09T13:13:29.343Z,94331.81
2024-05-09T13:15:57.221Z,94337.50
2024-05-09T13:18:28.305Z,94337.22
2024-05-09T13:20:56.009Z,94332.94
2024-05-09T13:23:26.541Z,94343.09
2024-05-09T13:25:54.223Z,94346.81
2024-05-09T13:28:25.035Z,94341.53
2024-05-09T13:30:55.737Z,94339.28
2024-05-09T13:33:26.440Z,94345.41
2024-05-09T13:35:54.170Z,94344.72
2024-05-09T13:38:24.860Z,94340.22
2024-05-09T13:40:52.812Z,94343.06
2024-05-09T13:43:25.619Z,94341.69
2024-05-09T13:45:57.600Z,94346.38
2024-05-09T13:48:28.782Z,94346.94
2024-05-09T13:50:57.503Z,94340.41
2024-05-09T13:53:27.818Z,94337.56
2024-05-09T13:55:55.563Z,94346.16
2024-05-09T13:58:26.396Z,94348.28
2024-05-09T14:00:57.109Z,94350.47
2024-05-09T14:03:30.111Z,94348.97
2024-05-09T14:05:58.334Z,94344.84
2024-05-09T14:08:29.169Z,94352.56
2024-05-09T14:10:57.068Z,94352.78
2024-05-09T14:13:27.292Z,94364.13
2024-05-09T14:15:57.872Z,94349.03
2024-05-09T14:18:28.791Z,94356.63
2024-05-09T14:20:56.527Z,94361.41
2024-05-09T14:23:26.981Z,94364.59
2024-05-09T14:25:54.599Z,94370.56
2024-05-09T14:28:27.097Z,94359.81
2024-05-09T14:30:57.684Z,94374.03
2024-05-09T14:33:28.329Z,94368.34
2024-05-09T14:35:56.249Z,94367.88
2024-05-09T14:38:26.918Z,94363.94
2024-05-09T14:40:54.695Z,94371.69
2024-05-09T14:43:25.475Z,94385.97
2024-05-09T14:45:53.778Z,94369.75
2024-05-09T14:48:27.233Z,94376.00
2024-05-09T14:50:54.912Z,94368.41
2024-05-09T14:53:26.597Z,94386.38
2024-05-09T14:55:54.601Z,94395.50
2024-05-09T14:58:25.113Z,94395.00
2024-05-09T15:00:53.191Z,94392.88
2024-05-09T15:03:27.332Z,94391.84
2024-05-09T15:05:55.204Z,94391.53
2024-05-09T15:08:25.933Z,94389.75
2024-05-09T15:10:53.721Z,94390.53
2024-05-09T15:13:24.729Z,94393.22
2024-05-09T15:15:52.601Z,94396.44
2024-05-09T15:18:23.432Z,94409.19
2024-05-09T15:20:57.070Z,94401.56
2024-05-09T15:23:24.771Z,94399.28
2024-05-09T15:25:54.974Z,94401.63
2024-05-09T15:28:23.359Z,94403.00
2024-05-09T15:30:55.230Z,94404.41
2024-05-09T15:33:24.052Z,94398.72
2024-05-09T15:35:57.427Z,94410.03
2024-05-09T15:38:26.556Z,94407.75
2024-05-09T15:40:57.323Z,94405.63
2024-05-09T15:43:25.518Z,94406.97
2024-05-09T15:45:56.508Z,94404.41
2024-05-09T15:48:24.579Z,94406.25
2024-05-09T15:50:57.751Z,94418.72
2024-05-09T15:53:25.450Z,94409.00
2024-05-09T15:55:55.859Z,94431.19
2024-05-09T15:58:24.220Z,94417.72
2024-05-09T16:00:54.893Z,94420.38
2024-05-09T16:03:22.680Z,94414.06
2024-05-09T16:05:57.820Z,94420.94
2024-05-09T16:08:25.695Z,94417.78
2024-05-09T16:10:56.500Z,94413.50
2024-05-09T16:13:24.573Z,94429.91
2024-05-09T16:15:55.313Z,94427.28
2024-05-09T16:18:25.620Z,94422.28
2024-05-09T16:21:00.386Z,94424.97
2024-05-09T16:23:28.800Z,94434.75
2024-05-09T16:26:00.796Z,94431.00
2024-05-09T16:28:28.611Z,94432.13
2024-05-09T16:31:01.506Z,94431.06
2024-05-09T16:33:29.901Z,94439.28
2024-05-09T16:36:04.016Z,94431.88
2024-05-09T16:38:31.984Z,94445.63
2024-05-09T16:41:02.476Z,94441.91
2024-05-09T16:43:30.193Z,94438.53
2024-05-09T16:46:00.947Z,94438.25
2024-05-09T16:48:28.722Z,94437.22
2024-05-09T16:50:59.085Z,94449.88
2024-05-09T16:53:29.437Z,94444.34
2024-05-09T16:55:59.940Z,94440.66
2024-05-09T16:58:27.691Z,94445.41
2024-05-09T17:00:58.148Z,94450.69
2024-05-09T17:03:25.958Z,94460.16
2024-05-09T17:05:56.810Z,94449.09
2024-05-09T17:08:24.618Z,94451.72
2024-05-09T17:10:57.852Z,94456.75
2024-05-09T17:13:25.896Z,94459.13
2024-05-09T17:15:56.385Z,94467.00
2024-05-09T17:18:28.364Z,94455.16
2024-05-09T17:20:56.122Z,94469.94
2024-05-09T17:23:26.611Z,94463.63
2024-05-09T17:26:00.379Z,94462.84
2024-05-09T17:28:28.356Z,94471.78
2024-05-09T17:30:58.667Z,94475.75
2024-05-09T17:33:26.635Z,94474.16
2024-05-09T17:35:57.245Z,94471.78
2024-05-09T17:38:26.501Z,94469.41
2024-05-09T17:40:59.926Z,94472.84
2024-05-09T17:43:28.280Z,94476.53
2024-05-09T17:45:59.111Z,94480.22
2024-05-09T17:48:26.930Z,94484.16
2024-05-09T17:50:57.355Z,94479.66
2024-05-09T17:53:25.195Z,94486.53
2024-05-09T17:56:00.472Z,94492.84
2024-05-09T17:58:28.470Z,94492.00
2024-05-09T18:00:59.312Z,94486.22
2024-05-09T18:03:28.895Z,94496.44
2024-05-09T18:05:59.934Z,94501.72
2024-05-09T18:08:27.720Z,94492.25
2024-05-09T18:11:01.234Z,94508.06
2024-05-09T18:13:29.156Z,94510.94
2024-05-09T18:16:00.870Z,94508.31
2024-05-09T18:18:28.771Z,94509.13
2024-05-09T18:20:59.136Z,94513.59
2024-05-09T18:23:26.866Z,94518.06
2024-05-09T18:26:00.179Z,94519.13
2024-05-09T18:28:28.286Z,94526.50
2024-05-09T18:30:59.194Z,94527.84
2024-05-09T18:33:27.020Z,94527.03
2024-05-09T18:35:57.680Z,94532.81
2024-05-09T18:38:27.041Z,94534.38
2024-05-09T18:41:00.645Z,94533.06
2024-05-09T18:43:38.013Z,94532.78
2024-05-09T18:46:12.783Z,94537.25
2024-05-09T18:48:40.630Z,94536.19
2024-05-09T18:51:11.569Z,94540.66
2024-05-09T18:53:39.871Z,94539.06
2024-05-09T18:56:14.296Z,94542.50
2024-05-09T18:58:44.482Z,94543.00
2024-05-09T19:01:12.439Z,94554.34
2024-05-09T19:03:43.467Z,94555.66
2024-05-09T19:06:11.587Z,94550.66
2024-05-09T19:08:41.762Z,94554.34
2024-05-09T19:11:12.280Z,94563.28
2024-05-09T19:13:42.592Z,94561.91
2024-05-09T19:16:10.313Z,94562.47
2024-05-09T19:18:40.858Z,94574.03
2024-05-09T19:21:09.070Z,94563.44
2024-05-09T19:23:46.822Z,94581.56
2024-05-09T19:26:24.300Z,94573.09
2024-05-09T19:28:53.116Z,94583.13
2024-05-09T19:31:23.855Z,94575.72
2024-05-09T19:33:51.868Z,94580.72
2024-05-09T19:36:22.734Z,94584.16
2024-05-09T19:38:51.698Z,94586.25
2024-05-09T19:41:25.347Z,94587.34
2024-05-09T19:43:53.003Z,94584.47
2024-05-09T19:46:23.856Z,94583.16
2024-05-09T19:48:52.140Z,94582.34
2024-05-09T19:51:22.577Z,94586.03
2024-05-09T19:53:50.922Z,94586.09
2024-05-09T19:56:25.181Z,94587.94
2024-05-09T19:58:52.970Z,94586.88
2024-05-09T20:01:23.399Z,94578.97
2024-05-09T20:03:51.309Z,94584.72
2024-05-09T20:06:24.502Z,94585.78
2024-05-09T20:08:53.793Z,94582.13
2024-05-09T20:11:27.913Z,94590.50
2024-05-09T20:13:57.004Z,94585.22
2024-05-09T20:16:27.794Z,94587.88
2024-05-09T20:18:55.673Z,94589.97
2024-05-09T20:21:26.044Z,94593.69
2024-05-09T20:23:54.566Z,94599.50
2024-05-09T20:26:29.946Z,94594.25
2024-05-09T20:28:58.489Z,94593.16
2024-05-09T20:31:29.199Z,94592.13
2024-05-09T20:33:56.990Z,94592.06
2024-05-09T20:36:27.222Z,94588.91
2024-05-09T20:38:54.748Z,94591.00
2024-05-09T20:41:28.090Z,94586.84
2024-05-09T20:43:58.173Z,94586.03
2024-05-09T20:46:28.758Z,94577.88
2024-05-09T20:48:56.634Z,94583.88
2024-05-09T20:51:27.675Z,94586.50
2024-05-09T20:53:56.198Z,94594.16
2024-05-09T20:56:29.217Z,94586.22
2024-05-09T20:58:57.470Z,94587.78
2024-05-09T21:01:27.980Z,94587.28
2024-05-09T21:03:55.864Z,94584.88
2024-05-09T21:06:26.276Z,94586.19
2024-05-09T21:08:53.950Z,94589.25
2024-05-09T21:11:25.279Z,94592.97
2024-05-09T21:13:55.597Z,94595.66
2024-05-09T21:16:26.026Z,94590.34
2024-05-09T21:18:53.883Z,94597.97
2024-05-09T21:21:24.482Z,94594.53
2024-05-09T21:23:52.106Z,94602.47
2024-05-09T21:26:23.923Z,94594.38
2024-05-09T21:28:51.637Z,94587.56
2024-05-09T21:31:24.538Z,94592.59
2024-05-09T21:33:52.292Z,94590.50
2024-05-09T21:36:22.926Z,94587.38
2024-05-09T21:38:50.502Z,94584.25
2024-05-09T21:41:21.387Z,94590.31
2024-05-09T21:43:48.964Z,94591.63
2024-05-09T21:46:19.614Z,94588.44
2024-05-09T21:48:50.110Z,94585.28
2024-05-09T21:51:21.214Z,94581.84
2024-05-09T21:53:49.290Z,94594.25
2024-05-09T21:56:19.758Z,94586.84
2024-05-09T21:58:47.397Z,94582.91
2024-05-09T22:01:17.812Z,94591.38
2024-05-09T22:03:45.641Z,94586.34
2024-05-09T22:06:18.644Z,94587.94
2024-05-09T22:08:46.205Z,94591.13
2024-05-09T22:11:16.895Z,94590.06
2024-05-09T22:13:44.584Z,94582.72
2024-05-09T22:16:14.968Z,94579.06
2024-05-09T22:18:42.841Z,94567.75
2024-05-09T22:21:13.190Z,94583.28
2024-05-09T22:23:43.602Z,94570.38
2024-05-09T22:26:14.075Z,94574.56
2024-05-09T22:28:41.616Z,94570.09
2024-05-09T22:31:12.500Z,94576.16
2024-05-09T22:33:41.441Z,94569.06
2024-05-09T22:36:12.851Z,94569.34
2024-05-09T22:38:43.086Z,94567.75
2024-05-09T22:41:13.386Z,94569.31
2024-05-09T22:43:41.168Z,94565.34
2024-05-09T22:46:11.736Z,94566.16
2024-05-09T22:48:39.670Z,94569.03
2024-05-09T22:51:10.021Z,94565.34
2024-05-09T22:53:37.625Z,94564.84
2024-05-09T22:56:11.197Z,94561.44
2024-05-09T22:58:38.895Z,94562.75
2024-05-09T23:01:09.369Z,94553.78
2024-05-09T23:03:39.649Z,94556.94
2024-05-09T23:06:10.996Z,94556.16
2024-05-09T23:08:38.729Z,94560.59
2024-05-09T23:11:12.175Z,94560.59
2024-05-09T23:13:39.870Z,94561.13
2024-05-09T23:16:10.608Z,94559.84
2024-05-09T23:18:38.316Z,94550.63
2024-05-09T23:21:09.135Z,94554.84
2024-05-09T23:23:36.832Z,94555.06
2024-05-09T23:26:07.368Z,94559.28
2024-05-09T23:28:37.763Z,94545.91
2024-05-09T23:31:08.478Z,94558.78
2024-05-09T23:33:36.227Z,94553.78
2024-05-09T23:36:07.145Z,94549.31
2024-05-09T23:38:34.790Z,94556.94
2024-05-09T23:41:05.069Z,94544.25
2024-05-09T23:43:33.169Z,94546.31
2024-05-09T23:46:06.048Z,94541.28
2024-05-09T23:48:34.050Z,94556.25
2024-05-09T23:51:04.424Z,94557.31
2024-05-09T23:53:32.048Z,94552.47
2024-05-09T23:56:02.482Z,94553.75
2024-05-09T23:58:31.484Z,94543.97
